Ephrata, WA

7:16 AM PDT en Octubre 01, 2014 (GMT -0700)
Ephrata Municipal | Change Station
CLOSE
Current Station
Aeropuerto
Location: Ephrata,
Altura: 1273 ft
Estaciones meteorológicas cercanas

Alt 1273 ft 47.31 °N, 119.52 °W | Updated 23 minutes ago

Clear
Despejado
53 ° F
Sensación térmica 53 ° F
N
13
Viento Variable Viento desde ONO

Hoy
Alta -- | Baja -- ° F
--% Posibilidad de precipitaciones
Ayer
Alta -- | Baja -- ° F
Precip. -- pul
6:57 AM 6:37 PM
Creciente, 48% visible
Presión 30.11 pul
Visibilidad 10.0 Millas
Nubes Despejado
Punto de rocío 35 ° F
Humedad 50%
Precipitaciones 0.00 pul
Espesor de la nieve 0 in , 0 in , 0 in
UV 0 de una escala de 12
Polen 1.90 de una escala de 12
Calidad del aire No disponible.
Flu Activity No disponible.
METAR KEPH 011353Z AUTO 29011KT 10SM CLR 12/02 A3011 RMK AO2 SLP194 T01170017

More Conditions Fewer Conditions

Presión 30.11 pul
Visibilidad 10.0 Millas
Nubes Despejado
Punto de rocío 35 ° F
Humedad 50%
Precipitaciones 0.00 pul
Espesor de la nieve 0 in , 0 in , 0 in
UV 0 de una escala de 12
Polen 1.90 de una escala de 12
Calidad del aire No disponible.
Flu Activity No disponible.
METAR KEPH 011353Z AUTO 29011KT 10SM CLR 12/02 A3011 RMK AO2 SLP194 T01170017

More Conditions Fewer Conditions

10-Day Weather Forecast

Almanac

Astronomía

Oct. 01, 2014 Salida Puesta
Hora real 6:57 AM PDT 6:37 PM PDT
Crepúsculo civil 6:26 AM PDT 7:07 PM PDT
Crepúsculo náutico 5:51 AM PDT 7:43 PM PDT
Crepúsculo astronómico 5:14 AM PDT 8:19 PM PDT
Luna 2:19 PM PDT 11:58 PM PDT
Horas de luz 12h 41m
Horas de luz
11h 40m
Tomorrow will be 3m 22s shorter.
Creciente, 48% of the Moon is Illuminated
Hoy
Creciente
Oct 1
Cuarto creciente
Oct 8
Luna llena
Oct 15
Cuarto menguante
Oct 23
Nueva

Extremos de hoy

Máximos del estado Bajos del estado

Community

WunderPhotos

Upload Photos

1,757,952 ¡fotos cargadas!

Nearby

Grosos de nieve

Estación Profundido Altura
Pigtail Peak 0 in 5900 ft
Spencer Meadow 0 in 3400 ft
Upper Wheeler 0 in 4400 ft
Harts Pass 0 in 6500 ft
Alpine Meadows 0 in 3500 ft

Actividad de terremotos

Ciudad Distance Mag. Tiempo y dato
No hay informes recientes de la actividad sísmica.
Magnitud mínima muestra es 2,5.

Temperaturas de aguas costeras

Lugar Temperatura
Sin partes meteorológicos de las estaciones

Estaciones meteorológicas cercanas